Time;durP1;ratioP1;P1;durP2;ratioP2;P2;SDS_P1;SDS_P2;PMS_P1;PMS_P2;Temp;Humidity;BMP_temperature;BMP_pressure;BME280_temperature;BME280_humidity;BME280_pressure;Samples;Min_cycle;Max_cycle;Signal;HPM_P1;HPM_P2
2021/08/31 00:01:21;;;;;;;12.70;3.75;;;13.50;99.90;;;;;;5053721;28;20449;-79
2021/08/31 00:03:47;;;;;;;7.00;3.65;;;13.60;99.90;;;;;;5050655;28;20045;-79
2021/08/31 00:06:13;;;;;;;4.57;2.75;;;13.60;99.90;;;;;;5036839;28;20075;-79
2021/08/31 00:08:38;;;;;;;4.65;4.00;;;13.60;99.90;;;;;;5053147;28;20048;-78
2021/08/31 00:11:04;;;;;;;2.83;2.25;;;13.60;99.90;;;;;;5051904;28;20596;-79
2021/08/31 00:13:29;;;;;;;;;;;13.60;99.90;;;;;;5036494;28;20099;-79
2021/08/31 00:15:55;;;;;;;3.78;2.08;;;13.60;99.90;;;;;;5067626;28;20373;-78
2021/08/31 00:18:21;;;;;;;4.85;2.97;;;13.60;99.90;;;;;;5044028;28;20449;-79
2021/08/31 00:20:47;;;;;;;5.30;3.40;;;13.60;99.90;;;;;;5054989;28;20037;-79
2021/08/31 00:23:13;;;;;;;6.35;2.50;;;13.60;99.90;;;;;;5063310;28;20068;-78
2021/08/31 00:25:39;;;;;;;7.07;3.40;;;13.50;99.90;;;;;;5066969;28;20037;-79
2021/08/31 00:28:05;;;;;;;;;;;13.50;99.90;;;;;;5067844;28;20115;-79
2021/08/31 00:30:30;;;;;;;6.47;3.08;;;13.50;99.90;;;;;;5059494;28;20011;-80
2021/08/31 00:32:56;;;;;;;5.75;3.40;;;13.50;99.90;;;;;;5066873;28;20470;-78
2021/08/31 00:35:22;;;;;;;;;;;13.50;99.90;;;;;;5082795;28;20398;-79
2021/08/31 00:37:47;;;;;;;6.70;3.70;;;13.40;99.90;;;;;;5061690;28;19925;-79
2021/08/31 00:40:14;;;;;;;3.38;2.88;;;13.50;99.90;;;;;;5066473;28;20373;-79
2021/08/31 00:42:39;;;;;;;;;;;13.50;99.90;;;;;;5068211;28;20044;-78
2021/08/31 00:45:05;;;;;;;4.28;2.45;;;13.40;99.90;;;;;;5055964;28;19917;-78
2021/08/31 00:47:31;;;;;;;3.60;2.53;;;13.40;99.90;;;;;;5060192;28;20044;-78
2021/08/31 00:49:57;;;;;;;10.60;2.67;;;13.40;99.90;;;;;;5057802;28;20120;-79
2021/08/31 00:52:22;;;;;;;3.85;2.05;;;13.30;99.90;;;;;;5064357;28;20041;-79
2021/08/31 00:54:48;;;;;;;21.80;4.53;;;13.40;99.90;;;;;;5057144;28;20422;-79
2021/08/31 00:57:15;;;;;;;;;;;13.30;99.90;;;;;;5063057;28;20036;-79
2021/08/31 00:59:41;;;;;;;2.65;2.05;;;13.30;99.90;;;;;;5064591;28;20353;-78
2021/08/31 01:02:07;;;;;;;10.48;2.97;;;13.30;99.90;;;;;;5060916;28;20120;-80
2021/08/31 01:04:33;;;;;;;4.35;3.13;;;13.30;99.90;;;;;;5057370;28;20116;-80
2021/08/31 01:07:00;;;;;;;1.77;1.65;;;13.30;99.90;;;;;;5054110;28;20045;-79
2021/08/31 01:09:27;;;;;;;3.60;2.05;;;13.30;99.90;;;;;;5057390;28;20514;-78
2021/08/31 01:11:54;;;;;;;2.78;2.10;;;13.30;99.90;;;;;;5063834;28;20109;-79
2021/08/31 01:14:22;;;;;;;4.50;2.83;;;13.40;99.90;;;;;;5058255;28;20041;-79
2021/08/31 01:16:49;;;;;;;5.70;2.67;;;13.50;99.90;;;;;;5056068;28;20047;-79
2021/08/31 01:19:22;;;;;;;2.13;1.65;;;13.50;99.90;;;;;;5094052;28;20116;-79
2021/08/31 01:21:48;;;;;;;2.78;1.65;;;13.50;99.90;;;;;;5049868;28;20044;-79
2021/08/31 01:24:13;;;;;;;3.17;2.53;;;13.60;99.90;;;;;;5061817;28;20037;-79
2021/08/31 01:26:39;;;;;;;4.07;2.70;;;13.60;99.90;;;;;;5068758;28;20048;-79
2021/08/31 01:29:05;;;;;;;2.63;2.05;;;13.60;99.90;;;;;;5054405;28;20542;-79
2021/08/31 01:31:31;;;;;;;;;;;13.60;99.90;;;;;;5067093;28;20054;-79
2021/08/31 01:33:57;;;;;;;3.05;2.70;;;13.70;99.90;;;;;;5052981;28;19921;-80
2021/08/31 01:36:25;;;;;;;5.85;3.22;;;13.70;99.90;;;;;;5060150;28;20451;-79
2021/08/31 01:38:53;;;;;;;4.03;2.80;;;13.80;99.90;;;;;;5060904;28;20057;-80
2021/08/31 01:41:19;;;;;;;15.23;3.63;;;13.80;99.90;;;;;;5059439;28;20124;-79
2021/08/31 01:43:45;;;;;;;;;;;13.90;99.90;;;;;;5062174;28;20040;-79
2021/08/31 01:46:11;;;;;;;2.83;1.73;;;13.90;99.90;;;;;;5055799;28;20335;-80
2021/08/31 01:48:37;;;;;;;6.55;2.85;;;13.90;99.90;;;;;;5050384;28;20490;-79
2021/08/31 01:51:04;;;;;;;6.53;2.33;;;14.00;99.90;;;;;;5050955;28;20045;-80
2021/08/31 01:53:29;;;;;;;12.18;3.03;;;14.00;99.90;;;;;;5052874;28;20052;-79
2021/08/31 01:55:55;;;;;;;4.30;2.85;;;14.00;99.90;;;;;;5033943;28;20037;-79
2021/08/31 01:58:21;;;;;;;4.90;1.80;;;14.10;99.90;;;;;;5049080;28;20131;-79
2021/08/31 02:00:46;;;;;;;3.13;2.10;;;14.10;99.90;;;;;;5086088;28;20083;-78
2021/08/31 02:03:13;;;;;;;7.38;1.85;;;14.20;99.90;;;;;;5053489;28;20041;-80
2021/08/31 02:05:38;;;;;;;;;;;14.20;99.90;;;;;;5050812;28;20033;-79
2021/08/31 02:08:04;;;;;;;2.65;1.67;;;14.30;99.90;;;;;;5052934;28;19923;-79
2021/08/31 02:10:30;;;;;;;;;;;14.30;99.90;;;;;;5052315;28;20064;-78
2021/08/31 02:12:56;;;;;;;3.03;2.60;;;14.20;99.90;;;;;;5050606;28;19917;-80
2021/08/31 02:15:21;;;;;;;2.88;2.22;;;14.10;99.90;;;;;;5047199;28;20037;-79
2021/08/31 02:17:47;;;;;;;9.95;2.90;;;14.10;99.90;;;;;;5050189;28;20571;-79
2021/08/31 02:20:13;;;;;;;4.35;2.60;;;14.10;99.90;;;;;;5052378;28;20116;-79
2021/08/31 02:22:40;;;;;;;3.33;2.10;;;14.00;99.90;;;;;;5068840;28;20033;-79
2021/08/31 02:25:06;;;;;;;5.60;2.70;;;14.00;99.90;;;;;;5049225;28;20040;-79
2021/08/31 02:27:31;;;;;;;;;;;14.00;99.90;;;;;;5056053;28;20044;-79
2021/08/31 02:29:57;;;;;;;5.65;2.55;;;13.90;99.90;;;;;;5049164;28;19916;-79
2021/08/31 02:32:23;;;;;;;6.35;2.67;;;13.90;99.90;;;;;;5054540;28;20044;-79
2021/08/31 02:34:49;;;;;;;;;;;14.00;99.90;;;;;;5053485;28;20200;-80
2021/08/31 02:37:16;;;;;;;4.75;2.63;;;13.90;99.90;;;;;;5055156;28;19920;-80
2021/08/31 02:39:42;;;;;;;6.78;3.17;;;14.00;99.90;;;;;;5053569;28;20036;-79
2021/08/31 02:42:07;;;;;;;3.45;2.22;;;14.00;99.90;;;;;;5049264;28;20033;-80
2021/08/31 02:44:34;;;;;;;3.92;2.55;;;14.00;99.90;;;;;;5057964;28;20496;-79
2021/08/31 02:47:00;;;;;;;8.02;3.17;;;14.00;99.90;;;;;;5057928;28;20049;-79
2021/08/31 02:49:25;;;;;;;6.63;2.28;;;13.90;99.90;;;;;;5047381;28;20064;-80
2021/08/31 02:51:52;;;;;;;3.67;2.60;;;13.90;99.90;;;;;;5067413;28;20094;-81
2021/08/31 02:54:17;;;;;;;9.00;3.08;;;13.90;99.90;;;;;;5061030;28;20119;-79
2021/08/31 02:56:43;;;;;;;5.97;3.15;;;13.90;99.90;;;;;;5060329;28;20115;-79
2021/08/31 02:59:09;;;;;;;6.35;3.17;;;14.00;99.90;;;;;;5060189;28;20068;-80
2021/08/31 03:01:38;;;;;;;7.63;2.92;;;14.00;99.90;;;;;;5054405;28;20091;-79
2021/08/31 03:04:05;;;;;;;5.30;2.55;;;14.00;99.90;;;;;;5056917;28;20059;-79
2021/08/31 03:06:31;;;;;;;9.48;4.13;;;14.00;99.90;;;;;;5058992;28;20068;-79
2021/08/31 03:08:58;;;;;;;7.35;3.88;;;14.00;99.90;;;;;;5069630;28;20482;-79
2021/08/31 03:11:24;;;;;;;5.32;3.55;;;14.00;99.90;;;;;;5062540;28;20033;-78
2021/08/31 03:13:50;;;;;;;7.15;3.50;;;14.00;99.90;;;;;;5057578;28;20402;-78
2021/08/31 03:16:16;;;;;;;8.05;3.22;;;14.00;99.90;;;;;;5061109;28;20109;-79
2021/08/31 03:18:42;;;;;;;10.00;4.25;;;14.00;99.90;;;;;;5053791;28;20094;-79
2021/08/31 03:21:08;;;;;;;6.22;3.72;;;14.10;99.90;;;;;;5030345;28;20389;-79
2021/08/31 03:23:33;;;;;;;6.07;3.28;;;14.10;99.90;;;;;;5052670;28;20037;-79
2021/08/31 03:25:59;;;;;;;5.35;2.60;;;14.20;99.90;;;;;;5061255;28;20041;-81
2021/08/31 03:28:25;;;;;;;4.20;3.75;;;14.20;99.90;;;;;;5047719;28;20041;-80
2021/08/31 03:30:51;;;;;;;2.67;2.30;;;14.20;99.90;;;;;;5064918;28;20059;-80
2021/08/31 03:33:17;;;;;;;;;;;14.30;99.90;;;;;;5063092;28;20127;-80
2021/08/31 03:35:42;;;;;;;5.20;3.10;;;14.30;99.90;;;;;;5089198;28;19916;-79
2021/08/31 03:38:08;;;;;;;5.38;2.58;;;14.40;99.90;;;;;;5062999;28;20052;-79
2021/08/31 03:40:34;;;;;;;5.05;3.13;;;14.40;99.90;;;;;;5057313;28;20103;-80
2021/08/31 03:43:00;;;;;;;;;;;14.40;99.90;;;;;;5058158;28;20402;-80
2021/08/31 03:45:26;;;;;;;3.67;3.15;;;14.50;99.90;;;;;;5060950;28;19921;-78
2021/08/31 03:47:51;;;;;;;;;;;14.60;99.90;;;;;;5051860;28;20380;-79
2021/08/31 03:50:17;;;;;;;4.53;3.55;;;14.60;99.90;;;;;;5064476;28;19966;-80
2021/08/31 03:52:43;;;;;;;4.80;3.03;;;14.60;99.90;;;;;;5072891;28;20405;-81
2021/08/31 03:55:09;;;;;;;5.13;3.47;;;14.70;99.90;;;;;;5054773;28;20040;-80
2021/08/31 03:57:35;;;;;;;5.93;3.65;;;14.80;99.90;;;;;;5064449;28;20048;-80
2021/08/31 04:00:00;;;;;;;5.18;3.10;;;14.80;99.90;;;;;;5070922;28;20069;-80
2021/08/31 04:02:26;;;;;;;5.00;3.13;;;14.80;99.90;;;;;;5065254;28;20079;-80
2021/08/31 04:04:52;;;;;;;3.17;2.30;;;14.90;99.90;;;;;;5052286;28;20041;-81
2021/08/31 04:07:18;;;;;;;7.00;2.88;;;14.80;99.90;;;;;;5053965;28;20056;-80
2021/08/31 04:09:43;;;;;;;6.35;4.15;;;14.90;99.90;;;;;;5052007;28;20032;-80
2021/08/31 04:12:09;;;;;;;4.65;2.65;;;14.90;99.90;;;;;;5069630;28;20424;-81
2021/08/31 04:14:35;;;;;;;;;;;15.00;99.90;;;;;;5036926;28;20041;-80
2021/08/31 04:17:01;;;;;;;7.70;4.25;;;15.00;99.90;;;;;;5050989;28;19931;-80
2021/08/31 04:19:27;;;;;;;6.50;3.45;;;15.10;99.90;;;;;;5051980;28;20049;-81
2021/08/31 04:21:53;;;;;;;6.57;3.97;;;15.10;99.90;;;;;;5070285;28;20129;-82
2021/08/31 04:24:18;;;;;;;;;;;15.10;99.90;;;;;;5067015;28;20516;-78
2021/08/31 04:26:44;;;;;;;4.35;3.38;;;15.10;99.90;;;;;;5061523;28;20313;-81
2021/08/31 04:29:10;;;;;;;8.52;3.28;;;15.10;99.90;;;;;;5055682;28;20493;-81
2021/08/31 04:31:36;;;;;;;4.05;3.60;;;15.10;99.90;;;;;;5056145;28;20075;-79
2021/08/31 04:34:02;;;;;;;5.30;2.55;;;15.20;99.90;;;;;;5065724;28;20579;-79
2021/08/31 04:36:28;;;;;;;;;;;15.20;99.90;;;;;;5052070;28;20393;-80
2021/08/31 04:38:54;;;;;;;4.75;2.88;;;15.20;99.90;;;;;;5084824;28;19974;-79
2021/08/31 04:41:20;;;;;;;9.25;4.13;;;15.20;99.90;;;;;;5064165;28;20052;-82
2021/08/31 04:43:45;;;;;;;10.68;2.88;;;15.20;99.90;;;;;;5039032;28;20102;-79
2021/08/31 04:46:11;;;;;;;4.68;2.28;;;15.20;99.90;;;;;;5050335;28;20094;-80
2021/08/31 04:48:37;;;;;;;6.88;4.78;;;15.20;99.90;;;;;;5057092;28;20037;-79
2021/08/31 04:51:03;;;;;;;7.82;4.03;;;15.20;99.90;;;;;;5051777;28;20048;-79
2021/08/31 04:53:29;;;;;;;;;;;15.20;99.90;;;;;;5053995;28;20052;-79
2021/08/31 04:55:56;;;;;;;4.30;2.47;;;15.20;99.90;;;;;;5054629;28;20239;-78
2021/08/31 04:58:22;;;;;;;5.13;2.92;;;15.20;99.90;;;;;;5052008;28;20066;-79
2021/08/31 05:00:47;;;;;;;5.63;2.72;;;15.30;99.90;;;;;;5051719;28;20044;-80
2021/08/31 05:03:13;;;;;;;;;;;15.30;99.90;;;;;;5040420;28;20044;-79
2021/08/31 05:05:41;;;;;;;6.05;2.35;;;15.30;99.90;;;;;;5067714;28;19916;-79
2021/08/31 05:08:07;;;;;;;4.72;2.80;;;15.30;99.90;;;;;;5036077;28;20079;-80
2021/08/31 05:10:32;;;;;;;4.80;2.33;;;15.30;99.90;;;;;;5051820;28;20079;-79
2021/08/31 05:12:58;;;;;;;;;;;15.20;99.90;;;;;;5052701;28;20129;-79
2021/08/31 05:15:24;;;;;;;3.72;2.38;;;15.20;99.90;;;;;;5050309;28;19946;-78
2021/08/31 05:17:50;;;;;;;3.70;2.42;;;15.20;99.90;;;;;;5035110;28;20063;-79
2021/08/31 05:20:17;;;;;;;;;;;15.10;99.90;;;;;;5051923;28;20378;-79
2021/08/31 05:22:43;;;;;;;6.97;3.25;;;15.10;99.90;;;;;;5056521;28;19975;-79
2021/08/31 05:25:08;;;;;;;6.70;4.10;;;15.10;99.90;;;;;;5053783;28;20148;-79
2021/08/31 05:27:34;;;;;;;3.33;1.95;;;15.20;99.90;;;;;;5038042;28;20064;-78
2021/08/31 05:30:00;;;;;;;;;;;15.20;99.90;;;;;;5052379;28;20049;-80
2021/08/31 05:32:26;;;;;;;3.70;2.67;;;15.10;99.90;;;;;;5054082;28;19928;-78
2021/08/31 05:34:52;;;;;;;;;;;15.20;99.90;;;;;;5044486;28;20049;-79
2021/08/31 05:37:17;;;;;;;8.00;2.80;;;15.20;99.90;;;;;;5053168;28;20329;-81
2021/08/31 05:39:43;;;;;;;2.95;2.15;;;15.20;99.90;;;;;;5034151;28;20513;-80
2021/08/31 05:42:11;;;;;;;10.55;2.50;;;15.30;99.90;;;;;;5061916;28;20076;-79
2021/08/31 05:44:39;;;;;;;3.58;2.53;;;15.30;99.90;;;;;;5044287;28;20560;-81
2021/08/31 05:47:05;;;;;;;4.68;2.22;;;15.30;99.90;;;;;;5083892;28;20052;-81
2021/08/31 05:49:32;;;;;;;11.43;3.38;;;15.30;99.90;;;;;;5051338;28;20053;-79
2021/08/31 05:51:58;;;;;;;3.03;2.40;;;15.40;99.90;;;;;;5056934;28;20134;-80
2021/08/31 05:54:25;;;;;;;5.65;2.80;;;15.40;99.90;;;;;;5053450;28;20055;-79
2021/08/31 05:56:55;;;;;;;3.72;2.47;;;15.40;99.90;;;;;;5051538;28;20513;-79
2021/08/31 05:59:21;;;;;;;4.40;2.63;;;15.50;99.90;;;;;;5033539;28;20044;-78
2021/08/31 06:01:47;;;;;;;2.95;2.22;;;15.50;99.90;;;;;;5054918;28;20037;-80
2021/08/31 06:04:12;;;;;;;;;;;15.60;99.90;;;;;;5052345;28;20052;-79
2021/08/31 06:06:38;;;;;;;3.40;2.67;;;15.70;99.90;;;;;;5036505;28;19917;-80
2021/08/31 06:09:07;;;;;;;6.53;3.20;;;15.70;99.90;;;;;;5054264;28;20120;-80
2021/08/31 06:11:40;;;;;;;13.63;4.05;;;15.80;99.90;;;;;;5054559;28;20040;-80
2021/08/31 06:14:09;;;;;;;3.45;2.88;;;15.90;99.90;;;;;;5052211;28;20053;-80
2021/08/31 06:16:35;;;;;;;4.97;3.42;;;16.00;99.90;;;;;;5076670;28;20057;-80
2021/08/31 06:19:01;;;;;;;6.50;2.70;;;16.10;99.90;;;;;;5055311;28;20041;-80
2021/08/31 06:21:28;;;;;;;5.30;2.45;;;16.10;99.90;;;;;;5038745;28;20037;-78
2021/08/31 06:23:53;;;;;;;8.43;3.17;;;16.20;99.90;;;;;;5062366;28;20049;-80
2021/08/31 06:26:19;;;;;;;6.45;3.15;;;16.30;99.90;;;;;;5066751;28;20047;-81
2021/08/31 06:28:45;;;;;;;8.13;4.25;;;16.30;99.90;;;;;;5061599;28;20052;-79
2021/08/31 06:31:11;;;;;;;;;;;16.30;99.90;;;;;;5065803;28;20122;-79
2021/08/31 06:33:36;;;;;;;10.68;3.45;;;16.40;99.90;;;;;;5060834;28;19916;-79
2021/08/31 06:36:03;;;;;;;2.88;2.22;;;16.40;99.90;;;;;;5065646;28;20054;-80
2021/08/31 06:38:28;;;;;;;3.50;2.22;;;16.50;99.90;;;;;;5044692;28;20045;-78
2021/08/31 06:40:54;;;;;;;3.72;2.85;;;16.60;99.90;;;;;;5049575;28;20047;-78
2021/08/31 06:43:20;;;;;;;;;;;16.70;99.90;;;;;;5050247;28;20041;-80
2021/08/31 06:45:45;;;;;;;5.20;3.35;;;16.70;99.90;;;;;;5066040;28;19927;-80
2021/08/31 06:48:11;;;;;;;;;;;16.80;99.90;;;;;;5062426;28;20052;-80
2021/08/31 06:50:37;;;;;;;4.68;2.80;;;16.70;99.90;;;;;;5044557;28;19924;-80
2021/08/31 06:53:03;;;;;;;4.30;2.35;;;16.70;99.90;;;;;;5073292;28;20031;-81
2021/08/31 06:55:29;;;;;;;4.30;2.65;;;16.60;99.90;;;;;;5053279;28;20052;-80
2021/08/31 06:57:54;;;;;;;;;;;16.60;99.90;;;;;;5063487;28;20490;-79
2021/08/31 07:00:20;;;;;;;4.03;2.40;;;16.50;99.90;;;;;;5086118;28;20422;-80
2021/08/31 07:02:46;;;;;;;;;;;16.50;99.90;;;;;;5053304;28;20102;-79
2021/08/31 07:05:12;;;;;;;4.40;2.90;;;16.60;99.90;;;;;;5061910;28;19916;-79
2021/08/31 07:07:37;;;;;;;;;;;16.60;99.90;;;;;;5047489;28;20052;-79
2021/08/31 07:10:04;;;;;;;6.90;2.63;;;16.70;99.90;;;;;;5065944;28;19924;-78
2021/08/31 07:12:30;;;;;;;4.88;2.83;;;16.70;99.90;;;;;;5064901;28;20045;-80
2021/08/31 07:14:57;;;;;;;2.90;2.15;;;16.80;99.90;;;;;;5069996;28;20093;-80
2021/08/31 07:17:23;;;;;;;4.38;2.00;;;16.80;99.90;;;;;;5067982;28;20037;-80
2021/08/31 07:19:49;;;;;;;4.65;3.28;;;16.80;99.90;;;;;;5069486;28;20371;-79
2021/08/31 07:22:17;;;;;;;;;;;16.70;99.90;;;;;;5056965;28;20124;-79
2021/08/31 07:24:43;;;;;;;4.43;1.92;;;16.70;99.90;;;;;;5061436;28;19920;-80
2021/08/31 07:27:08;;;;;;;6.30;2.17;;;16.60;99.90;;;;;;5071992;28;20036;-79
2021/08/31 07:29:34;;;;;;;;;;;16.70;99.90;;;;;;5056484;28;20458;-78
2021/08/31 07:32:00;;;;;;;4.57;1.90;;;16.80;99.90;;;;;;5058367;28;20298;-79
2021/08/31 07:34:27;;;;;;;;;;;17.00;99.90;;;;;;5055283;28;20139;-78
2021/08/31 07:36:53;;;;;;;4.50;1.60;;;17.00;99.90;;;;;;5070613;28;19917;-79
2021/08/31 07:39:19;;;;;;;2.83;2.22;;;17.30;99.90;;;;;;5071974;28;20106;-79
2021/08/31 07:41:45;;;;;;;;;;;17.20;99.90;;;;;;5059171;28;20041;-80
2021/08/31 07:44:10;;;;;;;2.10;1.67;;;17.30;99.90;;;;;;5081424;28;19916;-79
2021/08/31 07:46:36;;;;;;;;;;;17.30;99.90;;;;;;5053235;28;20475;-78
2021/08/31 07:49:02;;;;;;;2.03;1.20;;;17.40;99.90;;;;;;5060631;28;19916;-80
2021/08/31 07:51:27;;;;;;;;;;;17.40;99.90;;;;;;5078614;28;20040;-79
2021/08/31 07:53:53;;;;;;;1.77;1.55;;;17.40;99.90;;;;;;5085417;28;19916;-79
2021/08/31 07:56:19;;;;;;;;;;;17.60;99.90;;;;;;5061450;28;20048;-78
2021/08/31 07:58:44;;;;;;;2.17;1.23;;;17.70;99.90;;;;;;5067303;28;19920;-79
2021/08/31 08:01:10;;;;;;;4.57;1.25;;;17.90;99.90;;;;;;5074417;28;20389;-80
2021/08/31 08:03:36;;;;;;;;;;;18.10;99.90;;;;;;5071563;28;20482;-80
2021/08/31 08:06:01;;;;;;;3.95;1.83;;;18.10;99.90;;;;;;5057206;28;19917;-79
2021/08/31 08:08:27;;;;;;;;;;;18.00;99.90;;;;;;5061800;28;20041;-80
2021/08/31 08:10:53;;;;;;;2.17;1.55;;;17.90;99.90;;;;;;5051656;28;20699;-79
2021/08/31 08:13:18;;;;;;;;;;;17.70;99.90;;;;;;5032318;28;20078;-80
2021/08/31 08:15:44;;;;;;;2.35;0.95;;;17.70;99.90;;;;;;5058937;28;19920;-78
2021/08/31 08:18:11;;;;;;;;;;;17.60;99.90;;;;;;5063269;28;20039;-80
2021/08/31 08:20:41;;;;;;;7.00;2.27;;;17.70;99.90;;;;;;5069525;28;20456;-78
2021/08/31 08:23:07;;;;;;;18.75;1.55;;;17.90;99.90;;;;;;5065191;28;20775;-78
2021/08/31 08:25:33;;;;;;;;;;;18.30;99.90;;;;;;5037897;28;20044;-80
2021/08/31 08:27:58;;;;;;;1.45;1.10;;;18.60;99.90;;;;;;5059816;28;20354;-79
2021/08/31 08:30:24;;;;;;;;;;;18.80;99.90;;;;;;5059335;28;20470;-80
2021/08/31 08:32:50;;;;;;;8.50;1.85;;;18.70;99.90;;;;;;5047096;28;19923;-80
2021/08/31 08:35:16;;;;;;;;;;;18.60;99.90;;;;;;5062307;28;20057;-80
2021/08/31 08:37:42;;;;;;;3.70;1.35;;;18.50;99.90;;;;;;5063547;28;19958;-79
2021/08/31 08:40:09;;;;;;;3.83;1.58;;;18.60;99.90;;;;;;5054919;28;20063;-81
2021/08/31 08:42:38;;;;;;;6.25;2.17;;;18.70;99.90;;;;;;5039255;28;20037;-79
2021/08/31 08:45:06;;;;;;;3.05;1.42;;;18.70;99.90;;;;;;5058843;28;20037;-79
2021/08/31 08:47:33;;;;;;;5.32;1.58;;;18.70;99.90;;;;;;5062885;28;20044;-80
2021/08/31 08:49:59;;;;;;;8.98;2.13;;;18.80;99.90;;;;;;5060847;28;20048;-79
2021/08/31 08:52:26;;;;;;;10.35;2.17;;;18.70;99.90;;;;;;5041072;28;20053;-81
2021/08/31 08:54:51;;;;;;;3.03;1.30;;;18.70;99.90;;;;;;5055840;28;20044;-79
2021/08/31 08:57:17;;;;;;;;;;;18.80;99.90;;;;;;5046110;28;20391;-80
2021/08/31 08:59:43;;;;;;;2.33;1.63;;;18.80;99.90;;;;;;5056594;28;20366;-79
2021/08/31 09:02:10;;;;;;;;;;;18.80;99.90;;;;;;5039792;28;20129;-80
2021/08/31 09:05:03;;;;;;;5.70;1.63;;;18.80;99.90;;;;;;5034686;28;19977;-80
2021/08/31 09:07:29;;;;;;;3.30;1.38;;;18.70;99.90;;;;;;5066507;28;20048;-78
2021/08/31 09:10:10;;;;;;;;;;;18.70;99.90;;;;;;5085818;28;20049;-78
2021/08/31 09:12:36;;;;;;;1.70;1.33;;;18.70;99.90;;;;;;5052436;28;19967;-81
2021/08/31 09:15:31;;;;;;;8.60;1.70;;;18.80;99.90;;;;;;5052563;28;20044;-79
2021/08/31 09:18:03;;;;;;;8.35;2.38;;;18.90;99.90;;;;;;5067045;28;20092;-79
2021/08/31 09:20:39;;;;;;;3.42;1.70;;;18.90;99.90;;;;;;5064290;28;20041;-80
2021/08/31 09:23:09;;;;;;;3.57;1.23;;;18.90;99.90;;;;;;5051468;28;20037;-79
2021/08/31 09:25:39;;;;;;;2.00;1.27;;;18.80;99.90;;;;;;5042116;28;20280;-81
2021/08/31 09:28:27;;;;;;;5.07;1.73;;;18.90;99.90;;;;;;5040174;28;20521;-79
2021/08/31 09:31:16;;;;;;;1.88;1.33;;;19.00;99.90;;;;;;5074945;28;20087;-79
2021/08/31 09:33:49;;;;;;;1.83;1.33;;;19.10;99.90;;;;;;5029995;28;20052;-80
2021/08/31 09:36:17;;;;;;;3.60;2.20;;;19.20;99.90;;;;;;5064181;28;20091;-80
2021/08/31 09:38:55;;;;;;;4.57;1.52;;;19.30;99.90;;;;;;5052637;28;20049;-79
2021/08/31 09:41:41;;;;;;;4.13;1.55;;;19.30;99.90;;;;;;5060314;28;20090;-79
2021/08/31 09:44:14;;;;;;;2.60;1.57;;;19.30;99.90;;;;;;5068639;28;20045;-79
2021/08/31 09:47:01;;;;;;;1.55;1.15;;;19.20;99.90;;;;;;5057519;28;20291;-79
2021/08/31 09:49:29;;;;;;;1.60;1.15;;;19.30;99.90;;;;;;5059397;28;20105;-79
2021/08/31 09:52:12;;;;;;;3.33;1.42;;;19.40;99.90;;;;;;5055861;28;20045;-79
2021/08/31 09:54:48;;;;;;;2.75;1.70;;;19.70;99.90;;;;;;5050551;28;20183;-79
2021/08/31 09:57:35;;;;;;;1.77;1.05;;;19.90;99.90;;;;;;5053101;28;20059;-77
2021/08/31 10:00:04;;;;;;;7.80;2.35;;;20.00;99.90;;;;;;5068626;28;20040;-79
2021/08/31 10:02:30;;;;;;;3.53;1.90;;;20.00;99.90;;;;;;5057777;28;20045;-79
2021/08/31 10:04:56;;;;;;;2.45;1.25;;;20.00;99.90;;;;;;5052394;28;20071;-79
2021/08/31 10:07:24;;;;;;;4.43;1.83;;;19.80;99.90;;;;;;5065191;28;20045;-79
2021/08/31 10:09:52;;;;;;;3.38;1.80;;;19.70;99.90;;;;;;5029487;28;20040;-77
2021/08/31 10:12:21;;;;;;;1.75;1.25;;;19.70;99.90;;;;;;5062463;28;20040;-78
2021/08/31 10:14:52;;;;;;;3.03;1.75;;;19.80;99.90;;;;;;5057370;28;20048;-80
2021/08/31 10:17:21;;;;;;;3.65;1.20;;;19.70;99.90;;;;;;5045623;28;20102;-79
2021/08/31 10:19:50;;;;;;;1.83;1.40;;;19.70;99.90;;;;;;5068708;28;20056;-79
2021/08/31 10:22:17;;;;;;;4.63;1.60;;;19.60;99.90;;;;;;5039435;28;20064;-79
2021/08/31 10:24:47;;;;;;;2.28;1.27;;;19.80;99.90;;;;;;5028631;28;20032;-80
2021/08/31 10:27:40;;;;;;;9.43;2.22;;;19.90;99.90;;;;;;5060405;28;20048;-79
2021/08/31 10:30:31;;;;;;;2.22;1.55;;;19.80;99.90;;;;;;5051425;28;20045;-79
2021/08/31 10:32:59;;;;;;;3.58;1.90;;;19.80;99.90;;;;;;5056210;28;20053;-77
2021/08/31 10:35:32;;;;;;;2.80;1.58;;;19.70;99.90;;;;;;5036542;28;20063;-77
2021/08/31 10:38:00;;;;;;;2.92;1.48;;;19.60;99.90;;;;;;5064418;28;20037;-79
2021/08/31 10:40:33;;;;;;;3.72;1.73;;;19.50;99.90;;;;;;5044592;28;20045;-79
2021/08/31 10:43:01;;;;;;;3.75;1.40;;;19.50;99.90;;;;;;5035363;28;20041;-80
2021/08/31 10:45:49;;;;;;;4.72;1.95;;;19.50;99.90;;;;;;5065096;28;20052;-79
2021/08/31 10:48:23;;;;;;;4.07;1.40;;;19.50;99.90;;;;;;5045625;28;20453;-77
2021/08/31 10:51:11;;;;;;;2.65;1.48;;;19.50;99.90;;;;;;5053566;28;20540;-79
2021/08/31 10:53:47;;;;;;;3.17;1.52;;;19.50;99.90;;;;;;5049808;28;20049;-79
2021/08/31 10:56:22;;;;;;;2.58;1.95;;;19.40;99.90;;;;;;5081993;28;20071;-78
2021/08/31 10:59:26;;;;;;;2.72;1.48;;;19.30;99.90;;;;;;5073197;28;20049;-80
2021/08/31 11:01:52;;;;;;;3.38;1.52;;;19.10;99.90;;;;;;5051837;28;20049;-79
2021/08/31 11:04:31;;;;;;;4.18;2.28;;;19.10;99.90;;;;;;5035723;28;20378;-79
2021/08/31 11:07:03;;;;;;;4.78;1.90;;;19.00;99.90;;;;;;5064599;28;20060;-79
2021/08/31 11:09:30;;;;;;;4.60;1.85;;;18.90;99.90;;;;;;5068814;28;20066;-79
2021/08/31 11:12:12;;;;;;;3.85;1.25;;;19.00;99.90;;;;;;5053295;28;20493;-79
2021/08/31 11:14:44;;;;;;;6.93;1.90;;;19.10;99.90;;;;;;5042554;28;20044;-79
2021/08/31 11:17:10;;;;;;;4.57;2.13;;;19.10;99.90;;;;;;5081875;28;20119;-79
2021/08/31 11:19:36;;;;;;;3.50;1.65;;;19.00;99.90;;;;;;5053539;28;20063;-79
2021/08/31 11:22:02;;;;;;;3.58;1.58;;;19.00;99.90;;;;;;5044208;28;20466;-80
2021/08/31 11:24:27;;;;;;;;;;;19.00;99.90;;;;;;5060853;28;20095;-80
2021/08/31 11:26:59;;;;;;;3.42;1.52;;;19.00;99.90;;;;;;5074651;28;19982;-80
2021/08/31 11:29:28;;;;;;;2.85;1.75;;;19.00;99.90;;;;;;5043480;28;20440;-79
2021/08/31 11:32:02;;;;;;;2.00;1.27;;;19.10;99.90;;;;;;5062240;28;20069;-79
2021/08/31 11:34:28;;;;;;;1.40;1.08;;;19.10;99.90;;;;;;5070273;28;20103;-78
2021/08/31 11:37:02;;;;;;;3.05;1.67;;;19.10;99.90;;;;;;5072098;28;20115;-79
2021/08/31 11:39:28;;;;;;;2.67;1.63;;;19.00;99.90;;;;;;5071405;28;20049;-80
2021/08/31 11:41:54;;;;;;;2.80;1.40;;;18.90;99.90;;;;;;5053390;28;20033;-81
2021/08/31 11:44:23;;;;;;;;;;;18.90;99.90;;;;;;5055656;28;20045;-80
2021/08/31 11:46:54;;;;;;;3.55;1.65;;;18.80;99.90;;;;;;5049752;28;19923;-80
2021/08/31 11:49:29;;;;;;;6.78;2.50;;;18.70;99.90;;;;;;5048032;28;20036;-79
2021/08/31 11:51:54;;;;;;;5.20;1.67;;;18.60;99.90;;;;;;5069315;28;20049;-80
2021/08/31 11:54:23;;;;;;;6.07;1.88;;;18.70;99.90;;;;;;5054344;28;20045;-80
2021/08/31 11:56:52;;;;;;;3.50;2.13;;;18.70;99.90;;;;;;5046175;28;20036;-79
2021/08/31 11:59:42;;;;;;;3.00;1.45;;;18.80;99.90;;;;;;5066641;28;20460;-79
2021/08/31 12:02:25;;;;;;;4.03;1.67;;;18.90;99.90;;;;;;5034884;28;20039;-79
2021/08/31 12:04:55;;;;;;;3.75;1.50;;;19.00;99.90;;;;;;5058988;28;20441;-79
2021/08/31 12:07:27;;;;;;;3.15;1.38;;;19.00;99.90;;;;;;5056823;28;20071;-79
2021/08/31 12:09:56;;;;;;;7.60;2.83;;;19.00;99.90;;;;;;5085342;28;20047;-79
2021/08/31 12:12:22;;;;;;;5.70;1.40;;;18.90;99.90;;;;;;5052259;28;20053;-79
2021/08/31 12:14:50;;;;;;;9.35;2.25;;;18.90;99.90;;;;;;5055241;28;20052;-78
2021/08/31 12:17:32;;;;;;;1.10;1.00;;;18.90;99.90;;;;;;5055627;28;20049;-78
2021/08/31 12:20:08;;;;;;;3.15;1.95;;;18.90;99.90;;;;;;5057987;28;20041;-78
2021/08/31 12:22:37;;;;;;;1.80;1.38;;;18.90;99.90;;;;;;5058560;28;20045;-78
2021/08/31 12:25:04;;;;;;;5.32;1.52;;;19.00;99.90;;;;;;5055696;28;20037;-78
2021/08/31 12:27:37;;;;;;;1.92;1.30;;;19.00;99.90;;;;;;5064735;28;20044;-78
2021/08/31 12:30:03;;;;;;;1.70;1.13;;;18.90;99.90;;;;;;5063246;28;20053;-78
2021/08/31 12:32:31;;;;;;;1.45;0.88;;;18.90;99.90;;;;;;5035765;28;20429;-78
2021/08/31 12:35:22;;;;;;;1.83;1.45;;;18.80;99.90;;;;;;5059466;28;20065;-80
2021/08/31 12:38:08;;;;;;;3.40;1.60;;;18.80;99.90;;;;;;5058517;28;20092;-79
2021/08/31 12:40:36;;;;;;;1.65;1.23;;;18.80;99.90;;;;;;5064616;28;20047;-78
2021/08/31 12:43:09;;;;;;;3.55;1.55;;;18.80;99.90;;;;;;5042307;28;20494;-78
2021/08/31 12:45:35;;;;;;;1.77;1.50;;;18.80;99.90;;;;;;5058182;28;20045;-78
2021/08/31 12:48:02;;;;;;;2.15;1.13;;;18.80;99.90;;;;;;5042074;28;20451;-79
2021/08/31 12:50:28;;;;;;;4.18;1.50;;;18.80;99.90;;;;;;5065504;28;20041;-79
2021/08/31 12:53:01;;;;;;;4.35;1.38;;;18.70;99.90;;;;;;5060179;28;20036;-78
2021/08/31 12:55:31;;;;;;;1.10;1.00;;;18.50;99.90;;;;;;5044237;28;20040;-79
2021/08/31 12:58:32;;;;;;;3.22;1.52;;;18.40;99.90;;;;;;5051183;28;20501;-78
2021/08/31 13:01:22;;;;;;;6.95;1.98;;;18.30;99.90;;;;;;5034033;28;20049;-78
2021/08/31 13:03:55;;;;;;;3.30;1.05;;;18.30;99.90;;;;;;5033006;28;20045;-78
2021/08/31 13:06:40;;;;;;;4.65;1.50;;;18.30;99.90;;;;;;5038508;28;20068;-78